Terminal Aerodrome Forecast
Issued by NWS

Home | Current Version | Previous Version | Text Only | Print | Product List | Glossary On
Versions: 1 2 3 4 5 6 7 8 9 10 11 12 13
904
FTUS42 KTBW 252322
TAFPGD
TAF
KPGD 252322Z 2600/2624 10011KT P6SM FEW060
     FM260500 05005KT P6SM SKC
     FM261400 08009KT P6SM SCT035
     FM261700 07010G19KT P6SM SCT040=

USA.gov is the U.S. government's official web portal to all federal, state and local government web resources and services.